WetterOnline ( http://www.wetteronline.de )

Wetter aktuell Jever

Aktuelles Wetter: Bremerhaven (11m)

6-stündlich | Neueste Meldungen
Ortszeit Temperatur Wetter
Mi, 21.02. 7:00 -1.6° C wolkenlos
Mi, 21.02. 1:00 -0.3° C wolkenlos
Di, 20.02. 19:00 2.2° C wolkenlos
Di, 20.02. 13:00 4.8° C leicht bewölkt
Di, 20.02. 7:00 0.8° C bewölkt
Di, 20.02. 1:00 1.3° C bewölkt
Mo, 19.02. 19:00 3.0° C wolkig
Mo, 19.02. 13:00 4.3° C bedeckt
Ortszeit Temperatur Wetter
Mi, 21.02. 10:00 -0.2° C wolkig
Mi, 21.02. 9:40 -0.2° C wolkig
Mi, 21.02. 9:30 -1.2° C leicht bewölkt
Mi, 21.02. 9:20 -1.2° C leicht bewölkt
Mi, 21.02. 9:10 -1.2° C leicht bewölkt
Mi, 21.02. 9:00 -1.5° C fast wolkenlos
Mi, 21.02. 8:50 -1.5° C fast wolkenlos
Mi, 21.02. 8:30 -1.8° C wolkenlos
Mi, 21.02. 8:00 -1.8° C wolkenlos
Mi, 21.02. 7:30 -1.4° C wolkenlos
Mi, 21.02. 7:00 -1.6° C wolkenlos
Ortszeit Relative Feuchte Sichtweite
Mi, 21.02. 7:00 87% 10 km
Mi, 21.02. 1:00 81% 10 km
Di, 20.02. 19:00 68% 10 km
Di, 20.02. 13:00 62% 10 km
Di, 20.02. 7:00 86% 10 km
Di, 20.02. 1:00 84% 10 km
Mo, 19.02. 19:00 84% 10 km
Mo, 19.02. 13:00 76% 10 km
Ortszeit Relative Feuchte Sichtweite
Mi, 21.02. 10:00 81% 10 km
Mi, 21.02. 9:40 82% -
Mi, 21.02. 9:30 85% 9 km
Mi, 21.02. 9:20 85% -
Mi, 21.02. 9:10 86% -
Mi, 21.02. 9:00 87% 10 km
Mi, 21.02. 8:50 87% -
Mi, 21.02. 8:30 88% 10 km
Mi, 21.02. 8:00 87% 9 km
Mi, 21.02. 7:30 87% 10 km
Mi, 21.02. 7:00 87% 10 km
Ortszeit Niederschlagsmenge Niederschlagsart
Mi, 21.02. 7:00 0.0 l/m2 in 12 Std. -
Mi, 21.02. 1:00 0.0 l/m2 in 6 Std. -
Di, 20.02. 19:00 0.0 l/m2 in 12 Std. -
Di, 20.02. 13:00 0.0 l/m2 in 6 Std. -
Di, 20.02. 7:00 0.0 l/m2 in 12 Std. -
Di, 20.02. 1:00 0.0 l/m2 in 6 Std. -
Mo, 19.02. 19:00 0.0 l/m2 in 12 Std. -
Mo, 19.02. 13:00 0.0 l/m2 in 6 Std. -
Ortszeit Niederschlagsmenge Niederschlagsart
Mi, 21.02. 10:00 0.0 l/m2 in 1 Std. -
Mi, 21.02. 9:40 keine Meldung -
Mi, 21.02. 9:30 0.0 l/m2 in 1 Std. -
Mi, 21.02. 9:20 keine Meldung -
Mi, 21.02. 9:10 keine Meldung -
Mi, 21.02. 9:00 0.0 l/m2 in 1 Std. -
Mi, 21.02. 8:50 keine Meldung -
Mi, 21.02. 8:30 0.0 l/m2 in 1 Std. -
Mi, 21.02. 8:00 0.0 l/m2 in 1 Std. -
Mi, 21.02. 7:30 0.0 l/m2 in 1 Std. -
Mi, 21.02. 7:00 0.0 l/m2 in 1 Std. -
Ortszeit Stärke Spitze Richtung
km/h Bft. km/h Grad Sektor
Mi, 21.02. 7:00 11 2 18 60° NO
Mi, 21.02. 1:00 11 2 22 30° NO
Di, 20.02. 19:00 13 3 26 50° NO
Di, 20.02. 13:00 11 2 18 70° O
Di, 20.02. 7:00 7 2 14 80° O
Di, 20.02. 1:00 6 1 9 110° O
Mo, 19.02. 19:00 0 0 18 - -
Mo, 19.02. 13:00 11 2 18 200° S
Ortszeit Stärke Spitze Richtung
km/h Bft. km/h Grad Sektor
Mi, 21.02. 10:00 11 2 18 70° O
Mi, 21.02. 9:40 13 3 - 70° O
Mi, 21.02. 9:30 13 3 15 60° NO
Mi, 21.02. 9:20 13 3 - 60° NO
Mi, 21.02. 9:10 11 2 - 60° NO
Mi, 21.02. 9:00 13 3 17 60° NO
Mi, 21.02. 8:50 13 3 - 60° NO
Mi, 21.02. 8:30 13 3 15 60° NO
Mi, 21.02. 8:00 11 2 14 60° NO
Mi, 21.02. 7:30 11 2 14 70° O
Mi, 21.02. 7:00 11 2 18 60° NO
Ortszeit Untergrenze Bedeckung Gattung
total tief tief mittel hoch
Mi, 21.02. 7:00 - 0/8 0/8 - - -
Mi, 21.02. 1:00 - 0/8 0/8 - - -
Di, 20.02. 19:00 - 0/8 0/8 - - -
Di, 20.02. 13:00 840 m 2/8 1/8 - - -
Di, 20.02. 7:00 1800 m 7/8 7/8 - - -
Di, 20.02. 1:00 3300 m 7/8 7/8 - - -
Mo, 19.02. 19:00 1020 m 7/8 2/8 - - -
Mo, 19.02. 13:00 3000 m 8/8 8/8 - - -
Ortszeit Bedeckungsgrad in Achtel und Wolkenuntergrenze
Mi, 21.02. 10:00 6(4500m)
Mi, 21.02. 9:40 4(4500m) 5(5700m) 5(10500m)
Mi, 21.02. 9:30 1(5700m) 4(10500m)
Mi, 21.02. 9:20 1(5700m) 4(10500m)
Mi, 21.02. 9:10 3(10500m) 4(12000m)
Mi, 21.02. 9:00 1(10500m)
Mi, 21.02. 8:50 1(10500m)
Mi, 21.02. 8:30 1(10500m)
Mi, 21.02. 8:00 keine Wolken
Mi, 21.02. 7:30 keine Wolken
Mi, 21.02. 7:00 keine Wolken
Ortszeit Luftdruck NN (hPa) Tendenz (hPa in 3 Std.)
Mi, 21.02. 7:00 1027 + 0,2
Mi, 21.02. 1:00 1026 + 1,5
Di, 20.02. 19:00 1023 + 1,6
Di, 20.02. 13:00 1021 + 0,7
Di, 20.02. 7:00 1020 + 0,3
Di, 20.02. 1:00 1020 + 0,2
Mo, 19.02. 19:00 1019 + 0,1
Mo, 19.02. 13:00 1020 - 0,7
Ortszeit Luftdruck NN (hPa) Tendenz (hPa in 3 Std.)
Mi, 21.02. 10:00 1028 + 0,9
Mi, 21.02. 9:40 1028 keine Meldung
Mi, 21.02. 9:30 1028 + 0,6
Mi, 21.02. 9:20 1028 keine Meldung
Mi, 21.02. 9:10 1028 keine Meldung
Mi, 21.02. 9:00 1027 + 0,5
Mi, 21.02. 8:50 1027 keine Meldung
Mi, 21.02. 8:30 1027 + 0,1
Mi, 21.02. 8:00 1027 + 0,4
Mi, 21.02. 7:30 1027 + 0,3
Mi, 21.02. 7:00 1027 + 0,2
Ortszeit Schneehöhe (cm)
Mi, 21.02. 7:00 0
Mi, 21.02. 1:00 0
Di, 20.02. 19:00 0
Di, 20.02. 13:00 0
Di, 20.02. 7:00 0
Di, 20.02. 1:00 0
Mo, 19.02. 19:00 0
Mo, 19.02. 13:00 0
Ortszeit Schneehöhe (cm)
Mi, 21.02. 10:00 0
Mi, 21.02. 9:40 0
Mi, 21.02. 9:30 0
Mi, 21.02. 9:20 0
Mi, 21.02. 9:10 0
Mi, 21.02. 9:00 0
Mi, 21.02. 8:50 0
Mi, 21.02. 8:30 0
Mi, 21.02. 8:00 0
Mi, 21.02. 7:30 0
Mi, 21.02. 7:00 0
Link zu dieser Seite / Seite empfehlen

Das Wetter in ...